createdAt,value
2023-05-12T00:00:02.674Z,100.89
2023-05-12T00:01:02.703Z,100.51
2023-05-12T00:02:02.765Z,101.18
2023-05-12T00:03:02.856Z,101.11
2023-05-12T00:04:03.077Z,100.52
2023-05-12T00:05:03.054Z,99.94
2023-05-12T00:06:03.021Z,100.47
2023-05-12T00:07:03.069Z,99.19
2023-05-12T00:08:03.164Z,99.91
2023-05-12T00:09:03.187Z,99.14
2023-05-12T00:10:03.254Z,98.92
2023-05-12T00:11:03.307Z,100.16
2023-05-12T00:12:03.356Z,100.60
2023-05-12T00:13:03.438Z,100.15
2023-05-12T00:14:03.467Z,99.59
2023-05-12T00:15:03.517Z,100.40
2023-05-12T00:16:03.650Z,98.48
2023-05-12T00:17:03.653Z,98.42
2023-05-12T00:18:03.781Z,100.90
2023-05-12T00:19:03.875Z,99.65
2023-05-12T00:20:03.816Z,99.89
2023-05-12T00:21:03.892Z,99.79
2023-05-12T00:22:03.939Z,100.11
2023-05-12T00:23:04.004Z,99.66
2023-05-12T00:24:04.040Z,98.42
2023-05-12T00:25:04.097Z,99.28
2023-05-12T00:26:04.278Z,100.48
2023-05-12T00:27:04.208Z,99.15
2023-05-12T00:28:04.316Z,99.98
2023-05-12T00:29:04.345Z,100.47
2023-05-12T00:30:04.403Z,99.70
2023-05-12T00:31:04.482Z,99.31
2023-05-12T00:32:04.624Z,98.91
2023-05-12T00:33:04.630Z,100.19
2023-05-12T00:34:04.635Z,100.39
2023-05-12T00:35:04.697Z,98.99
2023-05-12T00:36:04.790Z,98.50
2023-05-12T00:37:04.852Z,100.35
2023-05-12T00:38:04.864Z,99.96
2023-05-12T00:39:04.931Z,100.07
2023-05-12T00:40:05.006Z,99.61
2023-05-12T00:41:05.077Z,100.08
2023-05-12T00:42:05.122Z,100.46
2023-05-12T00:43:05.149Z,99.20
2023-05-12T00:44:05.258Z,99.61
2023-05-12T00:45:05.276Z,98.80
2023-05-12T00:46:05.418Z,100.26
2023-05-12T00:47:05.378Z,100.10
2023-05-12T00:48:05.477Z,99.66
2023-05-12T00:49:05.498Z,100.20
2023-05-12T00:50:05.534Z,100.00
2023-05-12T00:51:05.612Z,100.58
2023-05-12T00:52:05.649Z,99.83
2023-05-12T00:53:05.705Z,100.12
2023-05-12T00:54:05.777Z,100.11
2023-05-12T00:55:05.823Z,101.06
2023-05-12T00:56:05.850Z,100.98
2023-05-12T00:57:05.903Z,100.24
2023-05-12T00:58:05.960Z,101.16
2023-05-12T00:59:06.052Z,101.36
2023-05-12T01:00:06.058Z,100.51
2023-05-12T01:01:06.144Z,101.21
2023-05-12T01:02:06.221Z,101.76
2023-05-12T01:03:06.356Z,101.42
2023-05-12T01:04:06.288Z,100.76
2023-05-12T01:05:06.363Z,99.18
2023-05-12T01:06:06.411Z,100.67
2023-05-12T01:07:06.450Z,102.26
2023-05-12T01:08:06.546Z,102.09
2023-05-12T01:09:06.556Z,101.01
2023-05-12T01:10:06.618Z,100.45
2023-05-12T01:11:06.686Z,100.82
2023-05-12T01:12:06.709Z,100.88
2023-05-12T01:13:06.775Z,100.12
2023-05-12T01:14:06.822Z,100.89
2023-05-12T01:15:06.886Z,100.30
2023-05-12T01:16:06.969Z,101.60
2023-05-12T01:17:07.060Z,100.88
2023-05-12T01:18:07.100Z,101.12
2023-05-12T01:19:07.160Z,100.19
2023-05-12T01:20:07.154Z,102.11
2023-05-12T01:21:07.212Z,101.41
2023-05-12T01:22:07.257Z,101.17
2023-05-12T01:23:07.330Z,99.84
2023-05-12T01:24:07.376Z,100.34
2023-05-12T01:25:07.409Z,100.08
2023-05-12T01:26:07.466Z,100.04
2023-05-12T01:27:07.532Z,99.45
2023-05-12T01:28:07.568Z,100.85
2023-05-12T01:29:07.642Z,101.33
2023-05-12T01:30:07.672Z,99.69
2023-05-12T01:31:07.795Z,100.15
2023-05-12T01:32:07.788Z,101.03
2023-05-12T01:33:07.848Z,100.14
2023-05-12T01:34:07.902Z,100.08
2023-05-12T01:35:07.993Z,100.48
2023-05-12T01:36:08.004Z,99.19
2023-05-12T01:37:08.070Z,99.99
2023-05-12T01:38:08.118Z,100.16
2023-05-12T01:39:08.170Z,100.33
2023-05-12T01:40:08.226Z,99.75
2023-05-12T01:41:08.290Z,99.80
2023-05-12T01:42:08.320Z,100.58
2023-05-12T01:43:08.392Z,99.90
2023-05-12T01:44:08.443Z,100.26
2023-05-12T01:45:08.490Z,100.29
2023-05-12T01:46:08.616Z,101.11
2023-05-12T01:47:08.607Z,101.77
2023-05-12T01:48:08.660Z,100.67
2023-05-12T01:49:08.703Z,101.80
2023-05-12T01:50:08.800Z,100.66
2023-05-12T01:51:08.875Z,100.06
2023-05-12T01:52:08.909Z,99.96
2023-05-12T01:53:08.931Z,100.51
2023-05-12T01:54:08.983Z,103.40
2023-05-12T01:55:09.034Z,101.97
2023-05-12T01:56:09.093Z,101.34
2023-05-12T01:57:09.162Z,101.42
2023-05-12T01:58:09.196Z,101.44
2023-05-12T01:59:09.308Z,102.22
2023-05-12T02:00:09.339Z,101.39
2023-05-12T02:01:09.349Z,101.75
2023-05-12T02:02:09.464Z,101.97
2023-05-12T02:03:09.577Z,101.95
2023-05-12T02:04:09.643Z,102.03
2023-05-12T02:05:09.580Z,102.04
2023-05-12T02:06:09.625Z,101.92
2023-05-12T02:07:09.669Z,102.16
2023-05-12T02:08:09.725Z,101.90
2023-05-12T02:09:09.806Z,102.21
2023-05-12T02:10:09.846Z,102.07
2023-05-12T02:11:09.915Z,103.86
2023-05-12T02:12:09.953Z,100.97
2023-05-12T02:13:10.032Z,101.48
2023-05-12T02:14:10.092Z,100.79
2023-05-12T02:15:10.144Z,101.48
2023-05-12T02:16:10.266Z,100.03
2023-05-12T02:17:10.260Z,100.43
2023-05-12T02:18:10.465Z,100.85
2023-05-12T02:19:10.491Z,100.87
2023-05-12T02:20:10.437Z,100.47
2023-05-12T02:21:10.485Z,100.32
2023-05-12T02:22:10.548Z,100.91
2023-05-12T02:23:10.595Z,100.43
2023-05-12T02:24:11.595Z,99.71
2023-05-12T02:25:10.711Z,98.89
2023-05-12T02:26:10.759Z,99.49
2023-05-12T02:27:10.915Z,98.92
2023-05-12T02:28:10.897Z,97.11
2023-05-12T02:29:10.941Z,98.66
2023-05-12T02:30:11.013Z,97.89
2023-05-12T02:31:11.056Z,97.70
2023-05-12T02:32:11.429Z,98.18
2023-05-12T02:33:11.210Z,97.71
2023-05-12T02:34:11.236Z,97.86
2023-05-12T02:35:11.295Z,97.08
2023-05-12T02:36:11.372Z,98.30
2023-05-12T02:37:11.409Z,96.76
2023-05-12T02:38:11.476Z,96.16
2023-05-12T02:39:11.590Z,95.14
2023-05-12T02:40:11.588Z,94.93
2023-05-12T02:41:11.641Z,94.60
2023-05-12T02:42:11.723Z,94.54
2023-05-12T02:43:11.776Z,93.89
2023-05-12T02:44:11.836Z,93.54
2023-05-12T02:45:11.913Z,93.24
2023-05-12T02:46:12.014Z,93.13
2023-05-12T02:47:12.013Z,92.15
2023-05-12T02:48:12.089Z,91.67
2023-05-12T02:49:12.130Z,91.80
2023-05-12T02:50:12.214Z,90.56
2023-05-12T02:51:12.263Z,91.20
2023-05-12T02:52:12.310Z,91.67
2023-05-12T02:53:12.369Z,91.36
2023-05-12T02:54:12.452Z,91.49
2023-05-12T02:55:12.474Z,89.81
2023-05-12T02:56:13.311Z,91.51
2023-05-12T02:57:12.606Z,91.08
2023-05-12T02:58:12.680Z,90.73
2023-05-12T02:59:12.757Z,88.97
2023-05-12T03:00:12.804Z,90.30
2023-05-12T03:01:12.896Z,87.64
2023-05-12T03:02:13.007Z,88.50
2023-05-12T03:03:13.043Z,89.19
2023-05-12T03:04:13.061Z,88.29
2023-05-12T03:05:13.116Z,89.46
2023-05-12T03:06:13.166Z,90.14
2023-05-12T03:07:13.221Z,88.48
2023-05-12T03:08:13.272Z,88.88
2023-05-12T03:09:13.356Z,89.18
2023-05-12T03:10:13.396Z,89.25
2023-05-12T03:11:13.471Z,87.62
2023-05-12T03:12:13.542Z,87.09
2023-05-12T03:13:13.592Z,87.75
2023-05-12T03:14:13.634Z,86.39
2023-05-12T03:15:13.698Z,88.33
2023-05-12T03:16:13.787Z,87.17
2023-05-12T03:17:13.924Z,87.22
2023-05-12T03:18:13.886Z,87.78
2023-05-12T03:19:13.959Z,86.83
2023-05-12T03:20:14.040Z,86.98
2023-05-12T03:21:14.097Z,86.81
2023-05-12T03:22:14.147Z,87.05
2023-05-12T03:23:14.198Z,86.51
2023-05-12T03:24:14.249Z,87.45
2023-05-12T03:25:14.307Z,87.27
2023-05-12T03:26:14.361Z,86.84
2023-05-12T03:27:14.438Z,85.98
2023-05-12T03:28:14.481Z,85.38
2023-05-12T03:29:14.534Z,83.46
2023-05-12T03:30:14.603Z,84.01
2023-05-12T03:31:14.676Z,84.91
2023-05-12T03:32:14.756Z,84.17
2023-05-12T03:33:14.849Z,84.82
2023-05-12T03:34:14.891Z,83.81
2023-05-12T03:35:14.936Z,84.12
2023-05-12T03:36:14.979Z,85.90
2023-05-12T03:37:15.052Z,86.35
2023-05-12T03:38:15.125Z,85.51
2023-05-12T03:39:15.172Z,85.56
2023-05-12T03:40:15.215Z,83.60
2023-05-12T03:41:15.289Z,85.50
2023-05-12T03:42:15.358Z,85.05
2023-05-12T03:43:15.445Z,85.28
2023-05-12T03:44:15.519Z,86.21
2023-05-12T03:45:15.553Z,84.22
2023-05-12T03:46:15.697Z,85.11
2023-05-12T03:47:15.764Z,85.72
2023-05-12T03:48:15.741Z,85.12
2023-05-12T03:49:15.777Z,86.85
2023-05-12T03:50:15.860Z,86.81
2023-05-12T03:51:15.912Z,87.24
2023-05-12T03:52:15.991Z,85.99
2023-05-12T03:53:16.022Z,85.62
2023-05-12T03:54:16.077Z,84.84
2023-05-12T03:55:16.132Z,83.06
2023-05-12T03:56:16.193Z,83.36
2023-05-12T03:57:16.250Z,83.21
2023-05-12T03:58:16.316Z,85.41
2023-05-12T03:59:16.365Z,84.27
2023-05-12T04:00:16.522Z,84.40
2023-05-12T04:01:16.476Z,84.19
2023-05-12T04:02:16.567Z,84.82
2023-05-12T04:03:16.655Z,81.91
2023-05-12T04:04:16.704Z,82.73
2023-05-12T04:05:16.712Z,83.96
2023-05-12T04:06:16.772Z,82.87
2023-05-12T04:07:16.850Z,81.71
2023-05-12T04:08:16.901Z,83.82
2023-05-12T04:09:16.940Z,83.40
2023-05-12T04:10:17.086Z,84.10
2023-05-12T04:11:17.057Z,84.08
2023-05-12T04:12:17.154Z,84.39
2023-05-12T04:13:17.255Z,85.03
2023-05-12T04:14:17.271Z,83.60
2023-05-12T04:15:17.321Z,82.23
2023-05-12T04:16:17.442Z,84.39
2023-05-12T04:17:17.568Z,84.43
2023-05-12T04:18:17.472Z,86.64
2023-05-12T04:19:17.560Z,87.53
2023-05-12T04:20:17.745Z,85.93
2023-05-12T04:21:17.663Z,86.27
2023-05-12T04:22:17.752Z,84.87
2023-05-12T04:23:17.792Z,83.69
2023-05-12T04:24:17.852Z,84.98
2023-05-12T04:25:17.928Z,86.25
2023-05-12T04:26:17.986Z,87.43
2023-05-12T04:27:18.060Z,86.06
2023-05-12T04:28:18.086Z,85.52
2023-05-12T04:29:18.167Z,85.82
2023-05-12T04:30:18.331Z,88.56
2023-05-12T04:31:18.361Z,88.87
2023-05-12T04:32:18.351Z,88.56
2023-05-12T04:33:18.418Z,86.27
2023-05-12T04:34:18.441Z,87.41
2023-05-12T04:35:18.583Z,86.49
2023-05-12T04:36:18.568Z,88.88
2023-05-12T04:37:18.626Z,88.45
2023-05-12T04:38:18.691Z,88.27
2023-05-12T04:39:18.764Z,88.68
2023-05-12T04:40:19.111Z,88.21
2023-05-12T04:41:18.882Z,88.89
2023-05-12T04:42:18.944Z,90.69
2023-05-12T04:44:19.010Z,92.07
2023-05-12T04:45:19.204Z,90.41
2023-05-12T04:46:18.980Z,90.99
2023-05-12T04:47:18.980Z,92.19
2023-05-12T04:48:18.952Z,91.40
2023-05-12T04:49:18.938Z,91.24
2023-05-12T04:50:18.952Z,91.88
2023-05-12T04:51:18.950Z,91.76
2023-05-12T04:52:18.948Z,91.72
2023-05-12T04:53:18.955Z,92.32
2023-05-12T04:54:18.905Z,92.24
2023-05-12T04:55:19.108Z,91.17
2023-05-12T04:56:18.911Z,91.94
2023-05-12T04:57:18.961Z,92.15
2023-05-12T04:58:18.885Z,91.22
2023-05-12T04:59:18.902Z,90.57
2023-05-12T05:00:18.878Z,90.58
2023-05-12T05:01:18.899Z,89.77
2023-05-12T05:02:18.901Z,90.03
2023-05-12T05:03:18.997Z,91.27
2023-05-12T05:04:18.866Z,90.92
2023-05-12T05:05:19.226Z,91.50
2023-05-12T05:06:18.838Z,91.31
2023-05-12T05:07:18.850Z,89.63
2023-05-12T05:08:18.838Z,90.64
2023-05-12T05:09:18.822Z,90.33
2023-05-12T05:10:18.824Z,91.10
2023-05-12T05:11:18.815Z,91.69
2023-05-12T05:12:18.823Z,92.17
2023-05-12T05:13:18.800Z,90.74
2023-05-12T05:14:18.780Z,91.35
2023-05-12T05:15:18.984Z,92.67
2023-05-12T05:16:18.845Z,90.79
2023-05-12T05:17:18.764Z,91.51
2023-05-12T05:18:19.454Z,91.98
2023-05-12T05:19:22.594Z,92.94
2023-05-12T05:20:19.956Z,93.04
2023-05-12T05:21:18.867Z,92.97
2023-05-12T05:22:18.854Z,92.91
2023-05-12T05:23:18.891Z,93.43
2023-05-12T05:24:18.830Z,94.29
2023-05-12T05:25:19.025Z,91.57
2023-05-12T05:26:18.834Z,93.28
2023-05-12T05:27:18.814Z,92.78
2023-05-12T05:28:18.818Z,92.32
2023-05-12T05:29:18.823Z,90.12
2023-05-12T05:30:18.880Z,83.92
2023-05-12T05:31:19.079Z,82.63
2023-05-12T05:32:19.054Z,86.67
2023-05-12T05:33:19.093Z,88.59
2023-05-12T05:34:19.182Z,87.61
2023-05-12T05:35:19.473Z,91.30
2023-05-12T05:36:19.259Z,98.10
2023-05-12T05:37:19.308Z,98.84
2023-05-12T05:38:19.271Z,99.34
2023-05-12T05:39:19.318Z,104.23
2023-05-12T05:40:19.406Z,117.87
2023-05-12T05:41:19.417Z,126.69
2023-05-12T05:42:19.421Z,133.69
2023-05-12T05:43:19.433Z,139.89
2023-05-12T05:44:19.427Z,144.54
2023-05-12T05:45:19.670Z,149.59
2023-05-12T05:46:19.550Z,152.56
2023-05-12T05:47:19.898Z,155.22
2023-05-12T05:48:19.554Z,156.98
2023-05-12T05:49:19.659Z,162.02
2023-05-12T05:50:19.699Z,161.56
2023-05-12T05:51:19.750Z,165.59
2023-05-12T05:52:19.896Z,165.50
2023-05-12T05:53:19.852Z,158.92
2023-05-12T05:54:19.842Z,164.80
2023-05-12T05:55:20.067Z,163.46
2023-05-12T05:56:19.880Z,158.73
2023-05-12T05:57:20.001Z,165.37
2023-05-12T05:58:20.184Z,170.11
2023-05-12T05:59:20.066Z,172.91
2023-05-12T06:00:20.078Z,166.40
2023-05-12T06:01:20.048Z,170.28
2023-05-12T06:02:20.142Z,174.03
2023-05-12T06:03:20.249Z,175.96
2023-05-12T06:04:20.335Z,177.40
2023-05-12T06:05:20.449Z,172.29
2023-05-12T06:06:20.205Z,177.87
2023-05-12T06:07:22.086Z,178.22
2023-05-12T06:08:20.332Z,180.33
2023-05-12T06:09:20.360Z,183.23
2023-05-12T06:10:20.625Z,182.17
2023-05-12T06:11:20.466Z,183.67
2023-05-12T06:12:20.529Z,181.93
2023-05-12T06:13:20.660Z,181.82
2023-05-12T06:14:20.640Z,182.13
2023-05-12T06:15:20.942Z,180.34
2023-05-12T06:16:20.831Z,184.16
2023-05-12T06:17:20.883Z,184.05
2023-05-12T06:18:20.967Z,185.83
2023-05-12T06:19:20.955Z,186.34
2023-05-12T06:20:21.008Z,185.09
2023-05-12T06:21:21.069Z,186.48
2023-05-12T06:22:21.169Z,173.49
2023-05-12T06:23:21.252Z,176.65
2023-05-12T06:24:21.270Z,179.30
2023-05-12T06:25:22.118Z,181.32
2023-05-12T06:26:21.396Z,188.03
2023-05-12T06:27:21.841Z,189.03
2023-05-12T06:28:22.850Z,189.72
2023-05-12T06:29:21.532Z,190.51
2023-05-12T06:30:21.592Z,190.54
2023-05-12T06:31:21.733Z,191.58
2023-05-12T06:32:21.936Z,191.96
2023-05-12T06:33:21.880Z,189.36
2023-05-12T06:34:21.805Z,186.93
2023-05-12T06:35:21.968Z,185.97
2023-05-12T06:36:21.867Z,181.78
2023-05-12T06:37:21.937Z,191.15
2023-05-12T06:38:22.025Z,191.79
2023-05-12T06:39:22.288Z,193.84
2023-05-12T06:40:22.174Z,197.13
2023-05-12T06:41:22.072Z,195.32
2023-05-12T06:42:22.186Z,192.98
2023-05-12T06:43:22.174Z,180.21
2023-05-12T06:44:22.251Z,189.07
2023-05-12T06:45:22.326Z,195.94
2023-05-12T06:46:22.397Z,197.93
2023-05-12T06:47:22.316Z,199.10
2023-05-12T06:48:22.437Z,199.83
2023-05-12T06:49:22.319Z,200.85
2023-05-12T06:50:22.334Z,201.97
2023-05-12T06:51:22.353Z,203.08
2023-05-12T06:52:22.397Z,204.25
2023-05-12T06:53:24.108Z,203.64
2023-05-12T06:54:22.372Z,204.94
2023-05-12T06:55:22.747Z,203.80
2023-05-12T06:56:22.383Z,201.68
2023-05-12T06:57:22.366Z,202.24
2023-05-12T06:58:22.400Z,204.62
2023-05-12T06:59:22.310Z,201.18
2023-05-12T07:00:22.312Z,203.40
2023-05-12T07:01:22.358Z,194.39
2023-05-12T07:02:22.307Z,197.11
2023-05-12T07:03:22.295Z,204.07
2023-05-12T07:04:22.274Z,206.25
2023-05-12T07:05:22.845Z,209.76
2023-05-12T07:06:22.272Z,211.01
2023-05-12T07:07:22.237Z,211.75
2023-05-12T07:08:22.237Z,213.71
2023-05-12T07:09:22.264Z,215.00
2023-05-12T07:10:22.328Z,209.86
2023-05-12T07:11:22.219Z,215.22
2023-05-12T07:12:22.230Z,217.16
2023-05-12T07:13:22.233Z,216.18
2023-05-12T07:14:22.201Z,218.66
2023-05-12T07:15:22.412Z,218.50
2023-05-12T07:16:22.232Z,218.92
2023-05-12T07:17:22.253Z,217.17
2023-05-12T07:18:22.458Z,217.35
2023-05-12T07:19:22.242Z,218.31
2023-05-12T07:20:22.179Z,219.05
2023-05-12T07:21:22.213Z,217.82
2023-05-12T07:22:22.156Z,217.81
2023-05-12T07:23:22.153Z,210.35
2023-05-12T07:24:22.143Z,212.21
2023-05-12T07:25:22.498Z,210.11
2023-05-12T07:26:22.205Z,190.44
2023-05-12T07:27:22.927Z,151.60
2023-05-12T07:28:22.473Z,138.59
2023-05-12T07:29:22.129Z,137.76
2023-05-12T07:30:22.100Z,124.92
2023-05-12T07:31:24.889Z,142.58
2023-05-12T07:32:22.289Z,193.04
2023-05-12T07:33:23.920Z,252.92
2023-05-12T07:34:22.091Z,254.69
2023-05-12T07:35:22.369Z,260.37
2023-05-12T07:36:22.232Z,259.87
2023-05-12T07:37:22.087Z,276.52
2023-05-12T07:38:22.063Z,235.03
2023-05-12T07:39:22.059Z,260.49
2023-05-12T07:40:23.037Z,284.03
2023-05-12T07:41:22.020Z,278.56
2023-05-12T07:42:22.065Z,273.64
2023-05-12T07:43:22.030Z,261.75
2023-05-12T07:44:22.025Z,242.50
2023-05-12T07:45:22.095Z,232.43
2023-05-12T07:46:22.036Z,239.91
2023-05-12T07:47:22.032Z,244.02
2023-05-12T07:48:22.395Z,247.60
2023-05-12T07:49:21.954Z,244.60
2023-05-12T07:50:22.024Z,243.55
2023-05-12T07:51:21.967Z,239.66
2023-05-12T07:52:21.968Z,230.84
2023-05-12T07:53:22.412Z,233.48
2023-05-12T07:54:21.927Z,232.52
2023-05-12T07:55:22.178Z,234.28
2023-05-12T07:56:22.016Z,233.11
2023-05-12T07:57:21.953Z,231.00
2023-05-12T07:58:22.367Z,229.25
2023-05-12T07:59:22.087Z,229.49
2023-05-12T08:00:21.941Z,223.71
2023-05-12T08:01:21.951Z,222.97
2023-05-12T08:02:22.000Z,212.70
2023-05-12T08:03:22.404Z,207.25
2023-05-12T08:04:21.964Z,211.46
2023-05-12T08:05:22.121Z,211.96
2023-05-12T08:06:21.962Z,206.43
2023-05-12T08:07:22.034Z,206.66
2023-05-12T08:08:21.985Z,206.46
2023-05-12T08:09:21.986Z,206.89
2023-05-12T08:10:22.042Z,189.59
2023-05-12T08:11:22.055Z,192.61
2023-05-12T08:12:22.297Z,196.12
2023-05-12T08:13:22.146Z,196.37
2023-05-12T08:14:22.092Z,196.02
2023-05-12T08:15:22.522Z,197.44
2023-05-12T08:16:22.152Z,196.21
2023-05-12T08:17:22.125Z,194.14
2023-05-12T08:18:22.951Z,192.96
2023-05-12T08:19:22.182Z,191.24
2023-05-12T08:20:22.273Z,187.49
2023-05-12T08:21:22.256Z,185.13
2023-05-12T08:22:22.290Z,182.21
2023-05-12T08:23:22.331Z,180.78
2023-05-12T08:24:22.360Z,178.83
2023-05-12T08:25:22.445Z,181.61
2023-05-12T08:26:22.444Z,153.73
2023-05-12T08:27:22.418Z,117.22
2023-05-12T08:28:22.448Z,68.61
2023-05-12T08:29:22.410Z,45.76
2023-05-12T08:30:22.597Z,52.39
2023-05-12T08:31:22.550Z,30.02
2023-05-12T08:32:22.665Z,30.62
2023-05-12T08:33:22.693Z,23.47
2023-05-12T08:34:22.590Z,22.63
2023-05-12T08:35:22.910Z,25.62
2023-05-12T08:36:22.778Z,22.67
2023-05-12T08:37:22.737Z,27.90
2023-05-12T08:38:22.939Z,35.70
2023-05-12T08:39:22.777Z,48.66
2023-05-12T08:40:22.867Z,60.21
2023-05-12T08:41:22.833Z,73.17
2023-05-12T08:42:22.841Z,86.78
2023-05-12T08:43:23.459Z,99.72
2023-05-12T08:44:23.052Z,103.69
2023-05-12T08:45:22.973Z,106.64
2023-05-12T08:46:23.927Z,109.84
2023-05-12T08:47:23.024Z,116.79
2023-05-12T08:48:23.049Z,131.03
2023-05-12T08:49:23.055Z,139.06
2023-05-12T08:50:23.182Z,141.63
2023-05-12T08:51:23.067Z,137.57
2023-05-12T08:52:23.128Z,147.50
2023-05-12T08:53:23.374Z,151.35
2023-05-12T08:54:23.269Z,152.82
2023-05-12T08:55:26.286Z,156.00
2023-05-12T08:57:23.321Z,156.29
2023-05-12T08:58:33.960Z,153.88
2023-05-12T08:59:24.290Z,156.14
2023-05-12T09:00:23.369Z,156.13
2023-05-12T09:01:23.460Z,157.24
2023-05-12T09:02:23.536Z,153.99
2023-05-12T09:03:23.423Z,163.00
2023-05-12T09:04:23.412Z,168.81
2023-05-12T09:05:23.564Z,157.72
2023-05-12T09:06:23.236Z,169.64
2023-05-12T09:07:23.233Z,172.51
2023-05-12T09:08:23.310Z,172.55
2023-05-12T09:09:23.333Z,173.94
2023-05-12T09:10:34.534Z,174.31
2023-05-12T09:11:24.358Z,174.32
2023-05-12T09:12:23.320Z,159.04
2023-05-12T09:13:23.375Z,131.04
2023-05-12T09:14:23.365Z,120.13
2023-05-12T09:15:23.432Z,114.28
2023-05-12T09:16:23.639Z,106.97
2023-05-12T09:17:23.386Z,99.67
2023-05-12T09:18:23.902Z,103.81
2023-05-12T09:19:23.306Z,98.09
2023-05-12T09:20:30.922Z,97.25
2023-05-12T09:21:24.362Z,83.49
2023-05-12T09:22:23.271Z,78.52
2023-05-12T09:23:23.424Z,70.50
2023-05-12T09:24:23.377Z,78.92
2023-05-12T09:25:23.360Z,66.27
2023-05-12T09:26:23.261Z,54.04
2023-05-12T09:27:23.278Z,32.57
2023-05-12T09:28:23.266Z,20.55
2023-05-12T09:29:30.806Z,11.12
2023-05-12T09:30:24.257Z,0.00
2023-05-12T09:31:23.242Z,0.00
2023-05-12T09:32:23.197Z,0.00
2023-05-12T09:33:23.222Z,0.00
2023-05-12T09:34:23.204Z,3.89
2023-05-12T09:35:23.176Z,16.30
2023-05-12T09:36:23.175Z,26.91
2023-05-12T09:37:23.169Z,26.30
2023-05-12T09:38:23.146Z,31.28
2023-05-12T09:39:23.391Z,33.06
2023-05-12T09:40:23.137Z,37.27
2023-05-12T09:41:23.166Z,38.11
2023-05-12T09:42:23.177Z,36.17
2023-05-12T09:43:23.202Z,44.36
2023-05-12T09:44:23.257Z,30.74
2023-05-12T09:45:23.264Z,24.39
2023-05-12T09:46:23.302Z,26.11
2023-05-12T09:47:23.426Z,29.38
2023-05-12T09:48:24.064Z,29.98
2023-05-12T09:49:23.384Z,33.04
2023-05-12T09:50:23.433Z,29.51
2023-05-12T09:51:23.418Z,31.74
2023-05-12T09:52:23.441Z,32.50
2023-05-12T09:53:23.507Z,36.79
2023-05-12T09:54:23.895Z,35.57
2023-05-12T09:55:23.546Z,37.49
2023-05-12T09:56:23.652Z,36.27
2023-05-12T09:57:23.639Z,30.36
2023-05-12T09:58:23.658Z,25.00
2023-05-12T09:59:23.705Z,23.80
2023-05-12T10:00:38.537Z,25.00
2023-05-12T10:01:24.849Z,23.97
2023-05-12T10:02:23.961Z,25.59
2023-05-12T10:03:23.752Z,27.26
2023-05-12T10:04:23.747Z,27.34
2023-05-12T10:05:23.720Z,28.24
2023-05-12T10:06:23.744Z,30.45
2023-05-12T10:07:23.683Z,31.98
2023-05-12T10:08:23.715Z,31.84
2023-05-12T10:09:23.906Z,34.28
2023-05-12T10:10:23.688Z,34.76
2023-05-12T10:11:23.679Z,34.32
2023-05-12T10:12:23.704Z,36.31
2023-05-12T10:13:23.716Z,36.48
2023-05-12T10:14:23.877Z,35.96
2023-05-12T10:15:23.732Z,39.95
2023-05-12T10:16:23.836Z,37.37
2023-05-12T10:17:23.826Z,42.55
2023-05-12T10:18:23.852Z,44.63
2023-05-12T10:19:23.812Z,37.42
2023-05-12T10:20:23.824Z,35.25
2023-05-12T10:21:23.902Z,33.20
2023-05-12T10:22:23.854Z,32.73
2023-05-12T10:23:23.993Z,29.26
2023-05-12T10:24:24.456Z,25.00
2023-05-12T10:25:24.044Z,32.50
2023-05-12T10:26:23.961Z,47.69
2023-05-12T10:27:24.028Z,59.40
2023-05-12T10:28:24.041Z,64.37
2023-05-12T10:29:24.052Z,71.10
2023-05-12T10:30:24.289Z,80.74
2023-05-12T10:31:24.143Z,90.11
2023-05-12T10:32:24.163Z,95.31
2023-05-12T10:33:24.198Z,102.95
2023-05-12T10:34:24.423Z,105.43
2023-05-12T10:35:24.263Z,110.95
2023-05-12T10:36:24.343Z,122.08
2023-05-12T10:37:24.409Z,129.17
2023-05-12T10:38:24.372Z,134.44
2023-05-12T10:39:24.392Z,140.27
2023-05-12T10:40:24.413Z,142.88
2023-05-12T10:41:24.435Z,146.82
2023-05-12T10:42:24.407Z,153.86
2023-05-12T10:43:24.388Z,158.18
2023-05-12T10:44:24.384Z,159.92
2023-05-12T10:45:24.422Z,162.37
2023-05-12T10:46:24.560Z,165.70
2023-05-12T10:47:24.589Z,169.28
2023-05-12T10:48:24.655Z,171.07
2023-05-12T10:49:24.717Z,170.98
2023-05-12T10:50:24.751Z,178.82
2023-05-12T10:51:24.846Z,181.75
2023-05-12T10:52:24.861Z,183.79
2023-05-12T10:53:26.196Z,185.15
2023-05-12T10:54:25.403Z,187.42
2023-05-12T10:55:25.151Z,188.63
2023-05-12T10:56:25.506Z,190.92
2023-05-12T10:57:25.039Z,192.37
2023-05-12T10:58:25.215Z,194.02
2023-05-12T10:59:25.268Z,194.67
2023-05-12T11:00:25.570Z,195.96
2023-05-12T11:01:25.277Z,197.67
2023-05-12T11:02:25.973Z,198.43
2023-05-12T11:03:25.521Z,200.59
2023-05-12T11:04:25.045Z,201.44
2023-05-12T11:05:25.143Z,203.89
2023-05-12T11:06:25.578Z,205.05
2023-05-12T11:07:24.993Z,205.44
2023-05-12T11:08:25.091Z,206.59
2023-05-12T11:09:25.132Z,207.31
2023-05-12T11:10:24.901Z,208.11
2023-05-12T11:11:25.125Z,209.58
2023-05-12T11:12:24.849Z,195.76
2023-05-12T11:13:24.803Z,205.06
2023-05-12T11:14:25.419Z,204.90
2023-05-12T11:15:25.407Z,210.49
2023-05-12T11:16:24.757Z,210.01
2023-05-12T11:17:24.791Z,211.33
2023-05-12T11:18:24.750Z,213.86
2023-05-12T11:19:24.913Z,213.17
2023-05-12T11:20:24.734Z,206.74
2023-05-12T11:21:24.782Z,204.25
2023-05-12T11:22:24.788Z,199.67
2023-05-12T11:23:24.863Z,197.82
2023-05-12T11:24:24.914Z,189.44
2023-05-12T11:25:25.402Z,185.73
2023-05-12T11:26:24.952Z,180.80
2023-05-12T11:27:25.003Z,176.04
2023-05-12T11:28:25.043Z,173.62
2023-05-12T11:29:25.073Z,168.25
2023-05-12T11:30:25.160Z,163.66
2023-05-12T11:31:25.190Z,161.21
2023-05-12T11:32:25.256Z,160.59
2023-05-12T11:33:25.255Z,157.22
2023-05-12T11:34:25.349Z,152.42
2023-05-12T11:35:25.403Z,150.14
2023-05-12T11:36:25.437Z,147.15
2023-05-12T11:37:25.495Z,143.21
2023-05-12T11:38:25.529Z,140.03
2023-05-12T11:39:25.587Z,138.10
2023-05-12T11:40:25.724Z,137.88
2023-05-12T11:41:25.736Z,136.13
2023-05-12T11:42:25.999Z,134.91
2023-05-12T11:43:25.849Z,132.67
2023-05-12T11:44:25.966Z,131.61
2023-05-12T11:45:26.016Z,131.22
2023-05-12T11:46:26.086Z,128.77
2023-05-12T11:47:26.218Z,129.41
2023-05-12T11:48:26.144Z,126.72
2023-05-12T11:49:26.215Z,124.22
2023-05-12T11:50:26.348Z,126.66
2023-05-12T11:51:26.303Z,124.20
2023-05-12T11:52:26.357Z,122.86
2023-05-12T11:53:27.707Z,121.92
2023-05-12T11:54:26.476Z,123.95
2023-05-12T11:55:26.664Z,124.29
2023-05-12T11:56:26.585Z,125.02
2023-05-12T11:57:26.715Z,127.34
2023-05-12T11:58:26.822Z,128.97
2023-05-12T11:59:26.773Z,132.73
2023-05-12T12:00:26.815Z,133.19
2023-05-12T12:01:26.883Z,135.57
2023-05-12T12:02:27.015Z,136.90
2023-05-12T12:03:27.054Z,138.36
2023-05-12T12:04:27.457Z,139.17
2023-05-12T12:05:27.048Z,141.38
2023-05-12T12:06:27.070Z,140.57
2023-05-12T12:07:27.147Z,139.91
2023-05-12T12:08:27.156Z,139.43
2023-05-12T12:09:27.420Z,140.29
2023-05-12T12:10:27.271Z,139.28
2023-05-12T12:11:27.279Z,138.99
2023-05-12T12:12:27.319Z,138.65
2023-05-12T12:13:27.360Z,140.02
2023-05-12T12:14:27.477Z,139.74
2023-05-12T12:15:27.469Z,139.81
2023-05-12T12:16:27.634Z,137.93
2023-05-12T12:17:27.553Z,138.10
2023-05-12T12:18:27.577Z,136.64
2023-05-12T12:19:27.609Z,133.46
2023-05-12T12:20:27.633Z,130.58
2023-05-12T12:21:27.687Z,121.24
2023-05-12T12:22:27.702Z,112.24
2023-05-12T12:23:27.694Z,115.69
2023-05-12T12:24:27.680Z,110.73
2023-05-12T12:25:27.724Z,101.20
2023-05-12T12:26:27.746Z,110.06
2023-05-12T12:27:27.690Z,107.19
2023-05-12T12:28:27.718Z,102.66
2023-05-12T12:29:27.686Z,105.81
2023-05-12T12:30:27.724Z,105.19
2023-05-12T12:31:27.801Z,107.44
2023-05-12T12:32:27.743Z,111.24
2023-05-12T12:33:27.709Z,121.08
2023-05-12T12:34:27.707Z,137.09
2023-05-12T12:35:27.724Z,157.83
2023-05-12T12:36:27.684Z,171.16
2023-05-12T12:37:27.688Z,169.99
2023-05-12T12:38:27.681Z,171.54
2023-05-12T12:39:27.703Z,170.97
2023-05-12T12:40:27.705Z,170.53